sensor_id;sensor_type;location;lat;lon;timestamp;P1;durP1;ratioP1;P2;durP2;ratioP2
18455;SDS011;9357;49.900;8.208;2022-07-21T00:00:08;14.30;;;12.53;;
18455;SDS011;9357;49.900;8.208;2022-07-21T00:01:41;13.43;;;12.10;;
18455;SDS011;9357;49.900;8.208;2022-07-21T00:03:17;13.27;;;11.97;;
18455;SDS011;9357;49.900;8.208;2022-07-21T00:04:50;14.83;;;12.87;;
18455;SDS011;9357;49.900;8.208;2022-07-21T00:06:22;14.87;;;13.07;;
18455;SDS011;9357;49.900;8.208;2022-07-21T00:07:55;13.90;;;12.50;;
18455;SDS011;9357;49.900;8.208;2022-07-21T00:09:28;16.63;;;13.33;;
18455;SDS011;9357;49.900;8.208;2022-07-21T00:11:01;14.73;;;12.83;;
18455;SDS011;9357;49.900;8.208;2022-07-21T00:12:34;15.03;;;13.63;;
18455;SDS011;9357;49.900;8.208;2022-07-21T00:14:07;17.23;;;15.30;;
18455;SDS011;9357;49.900;8.208;2022-07-21T00:15:42;15.17;;;13.67;;
18455;SDS011;9357;49.900;8.208;2022-07-21T00:17:15;15.20;;;13.80;;
18455;SDS011;9357;49.900;8.208;2022-07-21T00:18:49;15.00;;;13.40;;
18455;SDS011;9357;49.900;8.208;2022-07-21T00:20:22;16.67;;;15.03;;
18455;SDS011;9357;49.900;8.208;2022-07-21T00:21:55;13.93;;;12.53;;
18455;SDS011;9357;49.900;8.208;2022-07-21T00:23:28;18.80;;;16.80;;
18455;SDS011;9357;49.900;8.208;2022-07-21T00:25:01;16.87;;;15.07;;
18455;SDS011;9357;49.900;8.208;2022-07-21T00:26:34;16.77;;;14.07;;
18455;SDS011;9357;49.900;8.208;2022-07-21T00:28:06;16.77;;;15.00;;
18455;SDS011;9357;49.900;8.208;2022-07-21T00:29:39;16.27;;;14.40;;
18455;SDS011;9357;49.900;8.208;2022-07-21T00:31:12;17.20;;;15.57;;
18455;SDS011;9357;49.900;8.208;2022-07-21T00:32:45;16.40;;;14.70;;
18455;SDS011;9357;49.900;8.208;2022-07-21T00:34:19;15.90;;;14.27;;
18455;SDS011;9357;49.900;8.208;2022-07-21T00:35:51;14.23;;;13.03;;
18455;SDS011;9357;49.900;8.208;2022-07-21T00:37:24;16.30;;;14.70;;
18455;SDS011;9357;49.900;8.208;2022-07-21T00:38:58;16.93;;;14.73;;
18455;SDS011;9357;49.900;8.208;2022-07-21T00:40:31;15.83;;;14.23;;
18455;SDS011;9357;49.900;8.208;2022-07-21T00:42:03;17.03;;;15.27;;
18455;SDS011;9357;49.900;8.208;2022-07-21T00:43:36;16.80;;;14.50;;
18455;SDS011;9357;49.900;8.208;2022-07-21T00:45:09;16.67;;;15.10;;
18455;SDS011;9357;49.900;8.208;2022-07-21T00:46:42;16.27;;;14.53;;
18455;SDS011;9357;49.900;8.208;2022-07-21T00:48:16;15.97;;;14.47;;
18455;SDS011;9357;49.900;8.208;2022-07-21T00:49:51;15.40;;;13.87;;
18455;SDS011;9357;49.900;8.208;2022-07-21T00:51:23;14.70;;;13.23;;
18455;SDS011;9357;49.900;8.208;2022-07-21T00:52:55;15.53;;;13.93;;
18455;SDS011;9357;49.900;8.208;2022-07-21T00:54:28;15.87;;;14.23;;
18455;SDS011;9357;49.900;8.208;2022-07-21T00:56:01;16.07;;;14.57;;
18455;SDS011;9357;49.900;8.208;2022-07-21T00:57:34;15.40;;;13.80;;
18455;SDS011;9357;49.900;8.208;2022-07-21T00:59:07;14.47;;;13.07;;
18455;SDS011;9357;49.900;8.208;2022-07-21T01:00:40;14.57;;;13.17;;
18455;SDS011;9357;49.900;8.208;2022-07-21T01:02:14;16.07;;;14.30;;
18455;SDS011;9357;49.900;8.208;2022-07-21T01:03:46;16.63;;;14.83;;
18455;SDS011;9357;49.900;8.208;2022-07-21T01:05:21;15.13;;;13.57;;
18455;SDS011;9357;49.900;8.208;2022-07-21T01:06:54;16.63;;;15.03;;
18455;SDS011;9357;49.900;8.208;2022-07-21T01:08:27;16.40;;;14.90;;
18455;SDS011;9357;49.900;8.208;2022-07-21T01:10:00;17.43;;;15.63;;
18455;SDS011;9357;49.900;8.208;2022-07-21T01:11:33;15.57;;;14.07;;
18455;SDS011;9357;49.900;8.208;2022-07-21T01:13:07;15.07;;;13.50;;
18455;SDS011;9357;49.900;8.208;2022-07-21T01:14:40;14.67;;;13.17;;
18455;SDS011;9357;49.900;8.208;2022-07-21T01:16:13;15.73;;;13.87;;
18455;SDS011;9357;49.900;8.208;2022-07-21T01:17:46;13.57;;;12.27;;
18455;SDS011;9357;49.900;8.208;2022-07-21T01:19:19;14.63;;;13.23;;
18455;SDS011;9357;49.900;8.208;2022-07-21T01:20:53;16.03;;;14.43;;
18455;SDS011;9357;49.900;8.208;2022-07-21T01:22:28;13.93;;;12.63;;
18455;SDS011;9357;49.900;8.208;2022-07-21T01:24:00;13.33;;;12.13;;
18455;SDS011;9357;49.900;8.208;2022-07-21T01:25:34;12.70;;;11.13;;
18455;SDS011;9357;49.900;8.208;2022-07-21T01:27:06;13.17;;;12.07;;
18455;SDS011;9357;49.900;8.208;2022-07-21T01:28:38;11.87;;;10.77;;
18455;SDS011;9357;49.900;8.208;2022-07-21T01:30:11;12.80;;;11.70;;
18455;SDS011;9357;49.900;8.208;2022-07-21T01:31:45;13.30;;;12.00;;
18455;SDS011;9357;49.900;8.208;2022-07-21T01:33:19;13.07;;;11.77;;
18455;SDS011;9357;49.900;8.208;2022-07-21T01:34:52;12.03;;;10.83;;
18455;SDS011;9357;49.900;8.208;2022-07-21T01:36:24;12.67;;;11.40;;
18455;SDS011;9357;49.900;8.208;2022-07-21T01:37:58;12.07;;;10.87;;
18455;SDS011;9357;49.900;8.208;2022-07-21T01:39:32;11.50;;;10.43;;
18455;SDS011;9357;49.900;8.208;2022-07-21T01:41:22;12.43;;;11.07;;
18455;SDS011;9357;49.900;8.208;2022-07-21T01:43:00;10.70;;;9.80;;
18455;SDS011;9357;49.900;8.208;2022-07-21T01:44:38;11.27;;;10.27;;
18455;SDS011;9357;49.900;8.208;2022-07-21T01:46:11;11.57;;;10.37;;
18455;SDS011;9357;49.900;8.208;2022-07-21T01:47:44;14.23;;;12.73;;
18455;SDS011;9357;49.900;8.208;2022-07-21T01:49:16;15.53;;;14.03;;
18455;SDS011;9357;49.900;8.208;2022-07-21T01:50:50;14.73;;;13.23;;
18455;SDS011;9357;49.900;8.208;2022-07-21T01:52:23;12.60;;;11.40;;
18455;SDS011;9357;49.900;8.208;2022-07-21T01:53:58;14.87;;;13.43;;
18455;SDS011;9357;49.900;8.208;2022-07-21T01:55:31;14.97;;;13.47;;
18455;SDS011;9357;49.900;8.208;2022-07-21T01:57:04;13.97;;;12.67;;
18455;SDS011;9357;49.900;8.208;2022-07-21T01:58:37;14.63;;;13.23;;
18455;SDS011;9357;49.900;8.208;2022-07-21T02:00:09;13.93;;;12.63;;
18455;SDS011;9357;49.900;8.208;2022-07-21T02:01:42;12.73;;;11.50;;
18455;SDS011;9357;49.900;8.208;2022-07-21T02:03:15;13.50;;;12.20;;
18455;SDS011;9357;49.900;8.208;2022-07-21T02:04:48;11.43;;;10.43;;
18455;SDS011;9357;49.900;8.208;2022-07-21T02:06:21;12.63;;;11.30;;
18455;SDS011;9357;49.900;8.208;2022-07-21T02:07:54;12.37;;;11.00;;
18455;SDS011;9357;49.900;8.208;2022-07-21T02:09:28;12.13;;;11.03;;
18455;SDS011;9357;49.900;8.208;2022-07-21T02:11:00;13.70;;;10.77;;
18455;SDS011;9357;49.900;8.208;2022-07-21T02:12:34;10.83;;;9.83;;
18455;SDS011;9357;49.900;8.208;2022-07-21T02:14:07;9.90;;;8.90;;
18455;SDS011;9357;49.900;8.208;2022-07-21T02:15:40;9.80;;;8.90;;
18455;SDS011;9357;49.900;8.208;2022-07-21T02:17:12;9.90;;;8.90;;
18455;SDS011;9357;49.900;8.208;2022-07-21T02:18:45;9.30;;;8.40;;
18455;SDS011;9357;49.900;8.208;2022-07-21T02:20:17;8.40;;;7.67;;
18455;SDS011;9357;49.900;8.208;2022-07-21T02:21:50;8.60;;;7.80;;
18455;SDS011;9357;49.900;8.208;2022-07-21T02:23:23;8.07;;;7.37;;
18455;SDS011;9357;49.900;8.208;2022-07-21T02:24:58;7.87;;;7.27;;
18455;SDS011;9357;49.900;8.208;2022-07-21T02:26:31;7.97;;;7.27;;
18455;SDS011;9357;49.900;8.208;2022-07-21T02:28:04;7.90;;;7.10;;
18455;SDS011;9357;49.900;8.208;2022-07-21T02:29:36;7.77;;;6.97;;
18455;SDS011;9357;49.900;8.208;2022-07-21T02:31:09;7.30;;;6.70;;
18455;SDS011;9357;49.900;8.208;2022-07-21T02:32:42;7.87;;;7.07;;
18455;SDS011;9357;49.900;8.208;2022-07-21T02:34:15;7.70;;;7.00;;
18455;SDS011;9357;49.900;8.208;2022-07-21T02:35:48;7.10;;;6.50;;
18455;SDS011;9357;49.900;8.208;2022-07-21T02:37:20;7.47;;;6.87;;
18455;SDS011;9357;49.900;8.208;2022-07-21T02:38:52;7.77;;;6.93;;
18455;SDS011;9357;49.900;8.208;2022-07-21T02:40:27;7.03;;;6.43;;
18455;SDS011;9357;49.900;8.208;2022-07-21T02:42:00;7.30;;;6.70;;
18455;SDS011;9357;49.900;8.208;2022-07-21T02:43:33;7.67;;;6.90;;
18455;SDS011;9357;49.900;8.208;2022-07-21T02:45:06;7.47;;;6.67;;
18455;SDS011;9357;49.900;8.208;2022-07-21T02:46:40;7.93;;;6.97;;
18455;SDS011;9357;49.900;8.208;2022-07-21T02:48:13;7.50;;;6.90;;
18455;SDS011;9357;49.900;8.208;2022-07-21T02:49:45;7.63;;;6.93;;
18455;SDS011;9357;49.900;8.208;2022-07-21T02:51:19;8.30;;;7.50;;
18455;SDS011;9357;49.900;8.208;2022-07-21T02:52:53;8.93;;;8.13;;
18455;SDS011;9357;49.900;8.208;2022-07-21T02:54:26;8.70;;;7.90;;
18455;SDS011;9357;49.900;8.208;2022-07-21T02:56:00;8.77;;;7.87;;
18455;SDS011;9357;49.900;8.208;2022-07-21T02:57:32;8.80;;;7.97;;
18455;SDS011;9357;49.900;8.208;2022-07-21T02:59:05;7.93;;;7.23;;
18455;SDS011;9357;49.900;8.208;2022-07-21T03:00:39;8.77;;;7.97;;
18455;SDS011;9357;49.900;8.208;2022-07-21T03:02:13;7.97;;;7.27;;
18455;SDS011;9357;49.900;8.208;2022-07-21T03:03:46;8.37;;;7.57;;
18455;SDS011;9357;49.900;8.208;2022-07-21T03:05:19;7.80;;;7.10;;
18455;SDS011;9357;49.900;8.208;2022-07-21T03:06:52;7.47;;;6.87;;
18455;SDS011;9357;49.900;8.208;2022-07-21T03:08:25;8.27;;;7.50;;
18455;SDS011;9357;49.900;8.208;2022-07-21T03:09:59;8.13;;;7.33;;
18455;SDS011;9357;49.900;8.208;2022-07-21T03:11:32;8.30;;;7.47;;
18455;SDS011;9357;49.900;8.208;2022-07-21T03:13:05;7.90;;;7.10;;
18455;SDS011;9357;49.900;8.208;2022-07-21T03:14:38;8.27;;;7.47;;
18455;SDS011;9357;49.900;8.208;2022-07-21T03:16:11;7.97;;;7.17;;
18455;SDS011;9357;49.900;8.208;2022-07-21T03:17:43;8.30;;;7.60;;
18455;SDS011;9357;49.900;8.208;2022-07-21T03:19:16;8.20;;;7.40;;
18455;SDS011;9357;49.900;8.208;2022-07-21T03:20:48;7.60;;;6.97;;
18455;SDS011;9357;49.900;8.208;2022-07-21T03:22:21;7.17;;;6.40;;
18455;SDS011;9357;49.900;8.208;2022-07-21T03:23:54;7.50;;;6.80;;
18455;SDS011;9357;49.900;8.208;2022-07-21T03:25:27;7.60;;;6.90;;
18455;SDS011;9357;49.900;8.208;2022-07-21T03:27:00;7.23;;;6.63;;
18455;SDS011;9357;49.900;8.208;2022-07-21T03:28:38;7.70;;;6.90;;
18455;SDS011;9357;49.900;8.208;2022-07-21T03:30:11;7.97;;;6.57;;
18455;SDS011;9357;49.900;8.208;2022-07-21T03:31:44;8.23;;;6.90;;
18455;SDS011;9357;49.900;8.208;2022-07-21T03:33:17;7.30;;;6.67;;
18455;SDS011;9357;49.900;8.208;2022-07-21T03:34:50;8.07;;;7.37;;
18455;SDS011;9357;49.900;8.208;2022-07-21T03:36:22;7.57;;;6.87;;
18455;SDS011;9357;49.900;8.208;2022-07-21T03:37:55;7.33;;;6.73;;
18455;SDS011;9357;49.900;8.208;2022-07-21T03:39:29;7.53;;;6.83;;
18455;SDS011;9357;49.900;8.208;2022-07-21T03:41:02;7.30;;;6.60;;
18455;SDS011;9357;49.900;8.208;2022-07-21T03:42:44;7.23;;;6.53;;
18455;SDS011;9357;49.900;8.208;2022-07-21T03:44:16;7.27;;;6.57;;
18455;SDS011;9357;49.900;8.208;2022-07-21T03:45:49;7.47;;;6.87;;
18455;SDS011;9357;49.900;8.208;2022-07-21T03:47:22;7.47;;;6.70;;
18455;SDS011;9357;49.900;8.208;2022-07-21T03:48:54;7.90;;;7.20;;
18455;SDS011;9357;49.900;8.208;2022-07-21T03:50:28;7.20;;;6.60;;
18455;SDS011;9357;49.900;8.208;2022-07-21T03:52:01;6.97;;;6.37;;
18455;SDS011;9357;49.900;8.208;2022-07-21T03:53:33;7.93;;;7.13;;
18455;SDS011;9357;49.900;8.208;2022-07-21T03:55:07;7.57;;;6.87;;
18455;SDS011;9357;49.900;8.208;2022-07-21T03:56:45;7.47;;;6.87;;
18455;SDS011;9357;49.900;8.208;2022-07-21T03:58:19;8.27;;;7.47;;
18455;SDS011;9357;49.900;8.208;2022-07-21T03:59:52;7.63;;;6.93;;
18455;SDS011;9357;49.900;8.208;2022-07-21T04:01:28;8.63;;;7.70;;
18455;SDS011;9357;49.900;8.208;2022-07-21T04:03:01;7.80;;;7.00;;
18455;SDS011;9357;49.900;8.208;2022-07-21T04:04:36;7.37;;;6.77;;
18455;SDS011;9357;49.900;8.208;2022-07-21T04:06:08;7.87;;;7.07;;
18455;SDS011;9357;49.900;8.208;2022-07-21T04:07:43;8.13;;;7.33;;
18455;SDS011;9357;49.900;8.208;2022-07-21T04:09:16;7.67;;;6.97;;
18455;SDS011;9357;49.900;8.208;2022-07-21T04:10:49;8.20;;;7.50;;
18455;SDS011;9357;49.900;8.208;2022-07-21T04:12:24;7.73;;;7.00;;
18455;SDS011;9357;49.900;8.208;2022-07-21T04:13:58;7.90;;;7.10;;
18455;SDS011;9357;49.900;8.208;2022-07-21T04:15:31;7.20;;;6.50;;
18455;SDS011;9357;49.900;8.208;2022-07-21T04:17:04;6.57;;;6.07;;
18455;SDS011;9357;49.900;8.208;2022-07-21T04:18:36;7.63;;;6.67;;
18455;SDS011;9357;49.900;8.208;2022-07-21T04:20:10;7.90;;;7.10;;
18455;SDS011;9357;49.900;8.208;2022-07-21T04:21:43;7.83;;;7.10;;
18455;SDS011;9357;49.900;8.208;2022-07-21T04:23:16;7.30;;;6.60;;
18455;SDS011;9357;49.900;8.208;2022-07-21T04:24:48;8.10;;;7.30;;
18455;SDS011;9357;49.900;8.208;2022-07-21T04:26:20;7.60;;;7.00;;
18455;SDS011;9357;49.900;8.208;2022-07-21T04:27:53;7.47;;;6.77;;
18455;SDS011;9357;49.900;8.208;2022-07-21T04:29:27;8.40;;;7.53;;
18455;SDS011;9357;49.900;8.208;2022-07-21T04:31:00;8.50;;;7.70;;
18455;SDS011;9357;49.900;8.208;2022-07-21T04:32:33;8.30;;;7.50;;
18455;SDS011;9357;49.900;8.208;2022-07-21T04:34:06;7.50;;;6.77;;
18455;SDS011;9357;49.900;8.208;2022-07-21T04:35:39;8.60;;;7.90;;
18455;SDS011;9357;49.900;8.208;2022-07-21T04:37:12;8.57;;;7.60;;
18455;SDS011;9357;49.900;8.208;2022-07-21T04:38:45;8.43;;;7.23;;
18455;SDS011;9357;49.900;8.208;2022-07-21T04:40:20;7.97;;;7.27;;
18455;SDS011;9357;49.900;8.208;2022-07-21T04:41:52;8.00;;;7.20;;
18455;SDS011;9357;49.900;8.208;2022-07-21T04:43:25;7.80;;;7.10;;
18455;SDS011;9357;49.900;8.208;2022-07-21T04:44:59;7.73;;;7.00;;
18455;SDS011;9357;49.900;8.208;2022-07-21T04:46:32;7.70;;;7.00;;
18455;SDS011;9357;49.900;8.208;2022-07-21T04:48:05;8.50;;;7.70;;
18455;SDS011;9357;49.900;8.208;2022-07-21T04:49:38;9.40;;;7.93;;
18455;SDS011;9357;49.900;8.208;2022-07-21T04:51:11;7.77;;;7.07;;
18455;SDS011;9357;49.900;8.208;2022-07-21T04:52:43;7.97;;;7.27;;
18455;SDS011;9357;49.900;8.208;2022-07-21T04:54:17;8.30;;;7.47;;
18455;SDS011;9357;49.900;8.208;2022-07-21T04:55:49;8.20;;;7.37;;
18455;SDS011;9357;49.900;8.208;2022-07-21T04:57:22;8.33;;;7.63;;
18455;SDS011;9357;49.900;8.208;2022-07-21T04:58:55;8.70;;;7.90;;
18455;SDS011;9357;49.900;8.208;2022-07-21T05:00:29;7.37;;;6.63;;
18455;SDS011;9357;49.900;8.208;2022-07-21T05:02:02;8.57;;;7.77;;
18455;SDS011;9357;49.900;8.208;2022-07-21T05:03:35;7.93;;;7.23;;
18455;SDS011;9357;49.900;8.208;2022-07-21T05:05:08;9.30;;;8.30;;
18455;SDS011;9357;49.900;8.208;2022-07-21T05:06:41;8.03;;;7.30;;
18455;SDS011;9357;49.900;8.208;2022-07-21T05:08:14;7.73;;;7.03;;
18455;SDS011;9357;49.900;8.208;2022-07-21T05:09:47;8.40;;;7.60;;
18455;SDS011;9357;49.900;8.208;2022-07-21T05:11:19;8.60;;;7.70;;
18455;SDS011;9357;49.900;8.208;2022-07-21T05:12:51;7.53;;;6.83;;
18455;SDS011;9357;49.900;8.208;2022-07-21T05:14:24;8.03;;;7.23;;
18455;SDS011;9357;49.900;8.208;2022-07-21T05:15:59;9.47;;;8.13;;
18455;SDS011;9357;49.900;8.208;2022-07-21T05:17:32;8.73;;;7.90;;
18455;SDS011;9357;49.900;8.208;2022-07-21T05:19:05;8.47;;;7.70;;
18455;SDS011;9357;49.900;8.208;2022-07-21T05:20:38;8.27;;;7.53;;
18455;SDS011;9357;49.900;8.208;2022-07-21T05:22:11;8.87;;;7.83;;
18455;SDS011;9357;49.900;8.208;2022-07-21T05:23:44;8.83;;;8.03;;
18455;SDS011;9357;49.900;8.208;2022-07-21T05:25:17;8.00;;;7.30;;
18455;SDS011;9357;49.900;8.208;2022-07-21T05:26:50;7.73;;;7.03;;
18455;SDS011;9357;49.900;8.208;2022-07-21T05:28:23;9.13;;;7.60;;
18455;SDS011;9357;49.900;8.208;2022-07-21T05:29:56;7.20;;;6.60;;
18455;SDS011;9357;49.900;8.208;2022-07-21T05:31:30;7.17;;;6.57;;
18455;SDS011;9357;49.900;8.208;2022-07-21T05:33:03;9.07;;;7.40;;
18455;SDS011;9357;49.900;8.208;2022-07-21T05:34:36;7.97;;;7.17;;
18455;SDS011;9357;49.900;8.208;2022-07-21T05:36:09;8.63;;;7.10;;
18455;SDS011;9357;49.900;8.208;2022-07-21T05:37:42;7.87;;;6.80;;
18455;SDS011;9357;49.900;8.208;2022-07-21T05:39:16;7.97;;;7.20;;
18455;SDS011;9357;49.900;8.208;2022-07-21T05:40:49;7.80;;;7.10;;
18455;SDS011;9357;49.900;8.208;2022-07-21T05:42:21;8.00;;;7.30;;
18455;SDS011;9357;49.900;8.208;2022-07-21T05:43:54;8.50;;;7.30;;
18455;SDS011;9357;49.900;8.208;2022-07-21T05:45:27;9.90;;;7.27;;
18455;SDS011;9357;49.900;8.208;2022-07-21T05:47:01;8.20;;;7.40;;
18455;SDS011;9357;49.900;8.208;2022-07-21T05:48:34;8.77;;;7.97;;
18455;SDS011;9357;49.900;8.208;2022-07-21T05:50:08;7.50;;;6.90;;
18455;SDS011;9357;49.900;8.208;2022-07-21T05:51:41;8.20;;;7.40;;
18455;SDS011;9357;49.900;8.208;2022-07-21T05:53:14;8.03;;;7.33;;
18455;SDS011;9357;49.900;8.208;2022-07-21T05:54:47;8.83;;;8.03;;
18455;SDS011;9357;49.900;8.208;2022-07-21T05:56:19;8.57;;;7.80;;
18455;SDS011;9357;49.900;8.208;2022-07-21T05:57:52;8.27;;;7.47;;
18455;SDS011;9357;49.900;8.208;2022-07-21T05:59:26;7.80;;;7.00;;
18455;SDS011;9357;49.900;8.208;2022-07-21T06:01:00;8.57;;;7.77;;
18455;SDS011;9357;49.900;8.208;2022-07-21T06:02:45;9.90;;;8.13;;
18455;SDS011;9357;49.900;8.208;2022-07-21T06:04:18;8.23;;;7.40;;
18455;SDS011;9357;49.900;8.208;2022-07-21T06:05:51;9.13;;;7.67;;
18455;SDS011;9357;49.900;8.208;2022-07-21T06:07:24;8.03;;;7.17;;
18455;SDS011;9357;49.900;8.208;2022-07-21T06:08:57;7.53;;;6.73;;
18455;SDS011;9357;49.900;8.208;2022-07-21T06:10:30;8.47;;;7.67;;
18455;SDS011;9357;49.900;8.208;2022-07-21T06:12:04;7.90;;;7.07;;
18455;SDS011;9357;49.900;8.208;2022-07-21T06:13:37;7.40;;;6.60;;
18455;SDS011;9357;49.900;8.208;2022-07-21T06:15:12;8.30;;;7.50;;
18455;SDS011;9357;49.900;8.208;2022-07-21T06:16:45;8.37;;;7.57;;
18455;SDS011;9357;49.900;8.208;2022-07-21T06:18:19;7.67;;;6.97;;
18455;SDS011;9357;49.900;8.208;2022-07-21T06:19:54;7.37;;;6.67;;
18455;SDS011;9357;49.900;8.208;2022-07-21T06:21:26;7.50;;;6.70;;
18455;SDS011;9357;49.900;8.208;2022-07-21T06:22:59;7.77;;;6.87;;
18455;SDS011;9357;49.900;8.208;2022-07-21T06:24:32;7.13;;;6.53;;
18455;SDS011;9357;49.900;8.208;2022-07-21T06:26:05;7.87;;;7.07;;
18455;SDS011;9357;49.900;8.208;2022-07-21T06:27:37;6.80;;;6.20;;
18455;SDS011;9357;49.900;8.208;2022-07-21T06:29:10;7.30;;;6.63;;
18455;SDS011;9357;49.900;8.208;2022-07-21T06:30:43;7.93;;;7.10;;
18455;SDS011;9357;49.900;8.208;2022-07-21T06:32:16;7.17;;;6.57;;
18455;SDS011;9357;49.900;8.208;2022-07-21T06:33:51;7.97;;;7.27;;
18455;SDS011;9357;49.900;8.208;2022-07-21T06:35:24;8.57;;;7.33;;
18455;SDS011;9357;49.900;8.208;2022-07-21T06:36:57;7.80;;;6.87;;
18455;SDS011;9357;49.900;8.208;2022-07-21T06:38:30;10.40;;;6.80;;
18455;SDS011;9357;49.900;8.208;2022-07-21T06:40:04;7.90;;;7.20;;
18455;SDS011;9357;49.900;8.208;2022-07-21T06:41:38;7.90;;;7.10;;
18455;SDS011;9357;49.900;8.208;2022-07-21T06:43:11;7.20;;;6.60;;
18455;SDS011;9357;49.900;8.208;2022-07-21T06:45:00;7.47;;;6.80;;
18455;SDS011;9357;49.900;8.208;2022-07-21T06:46:33;8.30;;;6.70;;
18455;SDS011;9357;49.900;8.208;2022-07-21T06:48:07;8.57;;;6.93;;
18455;SDS011;9357;49.900;8.208;2022-07-21T06:49:41;8.13;;;6.77;;
18455;SDS011;9357;49.900;8.208;2022-07-21T06:51:14;7.37;;;6.77;;
18455;SDS011;9357;49.900;8.208;2022-07-21T06:52:47;7.13;;;6.53;;
18455;SDS011;9357;49.900;8.208;2022-07-21T06:54:20;7.70;;;7.00;;
18455;SDS011;9357;49.900;8.208;2022-07-21T06:55:53;7.40;;;6.63;;
18455;SDS011;9357;49.900;8.208;2022-07-21T06:57:34;7.17;;;6.47;;
18455;SDS011;9357;49.900;8.208;2022-07-21T06:59:07;7.70;;;6.97;;
18455;SDS011;9357;49.900;8.208;2022-07-21T07:00:40;7.73;;;7.13;;
18455;SDS011;9357;49.900;8.208;2022-07-21T07:02:13;7.43;;;6.73;;
18455;SDS011;9357;49.900;8.208;2022-07-21T07:03:46;7.00;;;6.30;;
18455;SDS011;9357;49.900;8.208;2022-07-21T07:05:20;7.50;;;6.90;;
18455;SDS011;9357;49.900;8.208;2022-07-21T07:06:53;8.40;;;7.60;;
18455;SDS011;9357;49.900;8.208;2022-07-21T07:08:26;7.73;;;6.97;;
18455;SDS011;9357;49.900;8.208;2022-07-21T07:09:59;8.03;;;7.23;;
18455;SDS011;9357;49.900;8.208;2022-07-21T07:11:33;7.47;;;6.87;;
18455;SDS011;9357;49.900;8.208;2022-07-21T07:13:06;7.60;;;6.67;;
18455;SDS011;9357;49.900;8.208;2022-07-21T07:15:00;7.50;;;6.70;;
18455;SDS011;9357;49.900;8.208;2022-07-21T07:16:33;6.90;;;6.30;;
18455;SDS011;9357;49.900;8.208;2022-07-21T07:18:06;7.17;;;6.57;;
18455;SDS011;9357;49.900;8.208;2022-07-21T07:19:39;6.50;;;5.90;;
18455;SDS011;9357;49.900;8.208;2022-07-21T07:21:13;7.43;;;6.73;;
18455;SDS011;9357;49.900;8.208;2022-07-21T07:22:46;6.70;;;6.00;;
18455;SDS011;9357;49.900;8.208;2022-07-21T07:24:19;7.80;;;7.00;;
18455;SDS011;9357;49.900;8.208;2022-07-21T07:25:52;7.23;;;6.63;;
18455;SDS011;9357;49.900;8.208;2022-07-21T07:27:24;7.30;;;6.60;;
18455;SDS011;9357;49.900;8.208;2022-07-21T07:29:04;7.17;;;6.43;;
18455;SDS011;9357;49.900;8.208;2022-07-21T07:30:37;7.43;;;6.77;;
18455;SDS011;9357;49.900;8.208;2022-07-21T07:32:10;7.97;;;7.27;;
18455;SDS011;9357;49.900;8.208;2022-07-21T07:33:43;7.87;;;7.17;;
18455;SDS011;9357;49.900;8.208;2022-07-21T07:35:16;7.27;;;6.67;;
18455;SDS011;9357;49.900;8.208;2022-07-21T07:36:50;7.60;;;6.97;;
18455;SDS011;9357;49.900;8.208;2022-07-21T07:38:23;7.10;;;6.50;;
18455;SDS011;9357;49.900;8.208;2022-07-21T07:39:56;7.63;;;6.87;;
18455;SDS011;9357;49.900;8.208;2022-07-21T07:41:29;7.80;;;7.00;;
18455;SDS011;9357;49.900;8.208;2022-07-21T07:43:02;7.20;;;6.70;;
18455;SDS011;9357;49.900;8.208;2022-07-21T07:44:38;6.87;;;6.27;;
18455;SDS011;9357;49.900;8.208;2022-07-21T07:46:11;7.33;;;6.63;;
18455;SDS011;9357;49.900;8.208;2022-07-21T07:47:44;6.53;;;5.97;;
18455;SDS011;9357;49.900;8.208;2022-07-21T07:49:17;7.73;;;6.40;;
18455;SDS011;9357;49.900;8.208;2022-07-21T07:50:50;8.07;;;6.50;;
18455;SDS011;9357;49.900;8.208;2022-07-21T07:52:24;7.07;;;6.37;;
18455;SDS011;9357;49.900;8.208;2022-07-21T07:53:59;9.53;;;6.27;;
18455;SDS011;9357;49.900;8.208;2022-07-21T07:55:34;7.30;;;6.60;;
18455;SDS011;9357;49.900;8.208;2022-07-21T07:57:07;7.27;;;6.57;;
18455;SDS011;9357;49.900;8.208;2022-07-21T07:58:40;7.53;;;6.80;;
18455;SDS011;9357;49.900;8.208;2022-07-21T08:00:14;7.27;;;6.37;;
18455;SDS011;9357;49.900;8.208;2022-07-21T08:02:08;6.87;;;6.17;;
18455;SDS011;9357;49.900;8.208;2022-07-21T08:03:41;6.77;;;6.17;;
18455;SDS011;9357;49.900;8.208;2022-07-21T08:05:14;7.90;;;6.70;;
18455;SDS011;9357;49.900;8.208;2022-07-21T08:06:47;5.80;;;5.33;;
18455;SDS011;9357;49.900;8.208;2022-07-21T08:08:21;6.77;;;6.27;;
18455;SDS011;9357;49.900;8.208;2022-07-21T08:09:54;7.43;;;6.43;;
18455;SDS011;9357;49.900;8.208;2022-07-21T08:11:47;7.00;;;6.40;;
18455;SDS011;9357;49.900;8.208;2022-07-21T08:13:22;6.63;;;6.03;;
18455;SDS011;9357;49.900;8.208;2022-07-21T08:14:54;6.90;;;6.27;;
18455;SDS011;9357;49.900;8.208;2022-07-21T08:16:27;6.40;;;5.80;;
18455;SDS011;9357;49.900;8.208;2022-07-21T08:18:00;6.27;;;5.67;;
18455;SDS011;9357;49.900;8.208;2022-07-21T08:19:33;6.00;;;5.40;;
18455;SDS011;9357;49.900;8.208;2022-07-21T08:21:06;6.07;;;5.47;;
18455;SDS011;9357;49.900;8.208;2022-07-21T08:22:39;6.27;;;5.73;;
18455;SDS011;9357;49.900;8.208;2022-07-21T08:24:13;6.23;;;5.73;;
18455;SDS011;9357;49.900;8.208;2022-07-21T08:25:45;5.97;;;5.37;;
18455;SDS011;9357;49.900;8.208;2022-07-21T08:27:18;6.20;;;5.07;;
18455;SDS011;9357;49.900;8.208;2022-07-21T08:28:51;5.47;;;5.03;;
18455;SDS011;9357;49.900;8.208;2022-07-21T08:30:24;5.53;;;5.03;;
18455;SDS011;9357;49.900;8.208;2022-07-21T08:32:01;6.97;;;5.63;;
18455;SDS011;9357;49.900;8.208;2022-07-21T08:33:34;5.73;;;5.23;;
18455;SDS011;9357;49.900;8.208;2022-07-21T08:35:07;5.43;;;4.93;;
18455;SDS011;9357;49.900;8.208;2022-07-21T08:36:41;6.30;;;5.70;;
18455;SDS011;9357;49.900;8.208;2022-07-21T08:38:13;5.60;;;5.10;;
18455;SDS011;9357;49.900;8.208;2022-07-21T08:39:48;5.20;;;4.80;;
18455;SDS011;9357;49.900;8.208;2022-07-21T08:41:20;5.53;;;5.07;;
18455;SDS011;9357;49.900;8.208;2022-07-21T08:42:54;5.63;;;5.20;;
18455;SDS011;9357;49.900;8.208;2022-07-21T08:44:27;5.60;;;5.07;;
18455;SDS011;9357;49.900;8.208;2022-07-21T08:45:59;5.30;;;4.90;;
18455;SDS011;9357;49.900;8.208;2022-07-21T08:47:32;5.50;;;5.10;;
18455;SDS011;9357;49.900;8.208;2022-07-21T08:49:16;5.20;;;4.80;;
18455;SDS011;9357;49.900;8.208;2022-07-21T08:50:53;6.23;;;4.87;;
18455;SDS011;9357;49.900;8.208;2022-07-21T08:52:26;5.40;;;4.90;;
18455;SDS011;9357;49.900;8.208;2022-07-21T08:53:58;5.97;;;5.10;;
18455;SDS011;9357;49.900;8.208;2022-07-21T08:55:33;5.90;;;4.83;;
18455;SDS011;9357;49.900;8.208;2022-07-21T08:57:07;5.40;;;4.90;;
18455;SDS011;9357;49.900;8.208;2022-07-21T08:58:40;6.00;;;5.07;;
18455;SDS011;9357;49.900;8.208;2022-07-21T09:00:13;5.90;;;5.30;;
18455;SDS011;9357;49.900;8.208;2022-07-21T09:01:46;5.70;;;5.30;;
18455;SDS011;9357;49.900;8.208;2022-07-21T09:03:19;5.83;;;5.30;;
18455;SDS011;9357;49.900;8.208;2022-07-21T09:04:54;5.87;;;5.13;;
18455;SDS011;9357;49.900;8.208;2022-07-21T09:06:27;5.73;;;5.20;;
18455;SDS011;9357;49.900;8.208;2022-07-21T09:08:00;5.20;;;4.80;;
18455;SDS011;9357;49.900;8.208;2022-07-21T09:09:33;6.33;;;4.70;;
18455;SDS011;9357;49.900;8.208;2022-07-21T09:11:18;5.23;;;4.80;;
18455;SDS011;9357;49.900;8.208;2022-07-21T09:12:54;5.43;;;4.93;;
18455;SDS011;9357;49.900;8.208;2022-07-21T09:14:29;6.67;;;4.90;;
18455;SDS011;9357;49.900;8.208;2022-07-21T09:16:03;5.43;;;4.93;;
18455;SDS011;9357;49.900;8.208;2022-07-21T09:17:36;5.33;;;4.93;;
18455;SDS011;9357;49.900;8.208;2022-07-21T09:19:30;5.67;;;5.07;;
18455;SDS011;9357;49.900;8.208;2022-07-21T09:21:04;5.87;;;5.20;;
18455;SDS011;9357;49.900;8.208;2022-07-21T09:22:37;5.30;;;4.83;;
18455;SDS011;9357;49.900;8.208;2022-07-21T09:24:11;5.47;;;4.93;;
18455;SDS011;9357;49.900;8.208;2022-07-21T09:25:48;5.50;;;5.00;;
18455;SDS011;9357;49.900;8.208;2022-07-21T09:27:23;5.77;;;5.17;;
18455;SDS011;9357;49.900;8.208;2022-07-21T09:29:02;7.03;;;4.80;;